sensor_id;sensor_type;location;lat;lon;timestamp;P1;durP1;ratioP1;P2;durP2;ratioP2
18322;SDS011;9287;49.456;11.064;2022-07-10T00:02:21;3.37;;;1.80;;
18322;SDS011;9287;49.456;11.064;2022-07-10T00:04:50;1.70;;;1.50;;
18322;SDS011;9287;49.456;11.064;2022-07-10T00:07:18;4.40;;;1.97;;
18322;SDS011;9287;49.456;11.064;2022-07-10T00:09:47;1.93;;;1.83;;
18322;SDS011;9287;49.456;11.064;2022-07-10T00:12:15;1.87;;;1.77;;
18322;SDS011;9287;49.456;11.064;2022-07-10T00:14:43;2.23;;;1.53;;
18322;SDS011;9287;49.456;11.064;2022-07-10T00:17:11;2.50;;;2.00;;
18322;SDS011;9287;49.456;11.064;2022-07-10T00:19:38;2.30;;;2.20;;
18322;SDS011;9287;49.456;11.064;2022-07-10T00:22:08;2.00;;;1.90;;
18322;SDS011;9287;49.456;11.064;2022-07-10T00:24:35;1.90;;;1.80;;
18322;SDS011;9287;49.456;11.064;2022-07-10T00:27:03;2.17;;;2.07;;
18322;SDS011;9287;49.456;11.064;2022-07-10T00:29:32;2.47;;;2.33;;
18322;SDS011;9287;49.456;11.064;2022-07-10T00:31:59;2.67;;;2.47;;
18322;SDS011;9287;49.456;11.064;2022-07-10T00:34:28;2.43;;;2.23;;
18322;SDS011;9287;49.456;11.064;2022-07-10T00:36:56;2.50;;;2.30;;
18322;SDS011;9287;49.456;11.064;2022-07-10T00:39:25;2.47;;;2.30;;
18322;SDS011;9287;49.456;11.064;2022-07-10T00:41:53;2.47;;;2.27;;
18322;SDS011;9287;49.456;11.064;2022-07-10T00:44:21;2.40;;;2.30;;
18322;SDS011;9287;49.456;11.064;2022-07-10T00:46:48;2.50;;;2.30;;
18322;SDS011;9287;49.456;11.064;2022-07-10T00:49:16;3.27;;;2.57;;
18322;SDS011;9287;49.456;11.064;2022-07-10T00:51:44;3.10;;;2.90;;
18322;SDS011;9287;49.456;11.064;2022-07-10T00:54:12;2.70;;;2.50;;
18322;SDS011;9287;49.456;11.064;2022-07-10T00:56:41;2.73;;;2.63;;
18322;SDS011;9287;49.456;11.064;2022-07-10T00:59:09;3.13;;;2.93;;
18322;SDS011;9287;49.456;11.064;2022-07-10T01:01:38;2.77;;;2.63;;
18322;SDS011;9287;49.456;11.064;2022-07-10T01:04:06;3.77;;;3.57;;
18322;SDS011;9287;49.456;11.064;2022-07-10T01:06:34;3.33;;;3.13;;
18322;SDS011;9287;49.456;11.064;2022-07-10T01:09:02;3.40;;;3.20;;
18322;SDS011;9287;49.456;11.064;2022-07-10T01:11:30;3.10;;;2.80;;
18322;SDS011;9287;49.456;11.064;2022-07-10T01:14:02;3.20;;;3.00;;
18322;SDS011;9287;49.456;11.064;2022-07-10T01:16:30;3.97;;;3.47;;
18322;SDS011;9287;49.456;11.064;2022-07-10T01:18:58;3.40;;;3.20;;
18322;SDS011;9287;49.456;11.064;2022-07-10T01:21:28;3.77;;;3.40;;
18322;SDS011;9287;49.456;11.064;2022-07-10T01:23:57;3.33;;;3.07;;
18322;SDS011;9287;49.456;11.064;2022-07-10T01:26:25;3.67;;;3.37;;
18322;SDS011;9287;49.456;11.064;2022-07-10T01:28:54;3.30;;;3.10;;
18322;SDS011;9287;49.456;11.064;2022-07-10T01:31:24;3.87;;;3.53;;
18322;SDS011;9287;49.456;11.064;2022-07-10T01:33:53;3.93;;;3.53;;
18322;SDS011;9287;49.456;11.064;2022-07-10T01:36:22;3.70;;;3.47;;
18322;SDS011;9287;49.456;11.064;2022-07-10T01:38:52;3.50;;;3.30;;
18322;SDS011;9287;49.456;11.064;2022-07-10T01:41:20;3.47;;;3.27;;
18322;SDS011;9287;49.456;11.064;2022-07-10T01:43:48;3.53;;;3.23;;
18322;SDS011;9287;49.456;11.064;2022-07-10T01:46:16;3.27;;;2.80;;
18322;SDS011;9287;49.456;11.064;2022-07-10T01:48:45;4.07;;;3.70;;
18322;SDS011;9287;49.456;11.064;2022-07-10T01:51:13;2.93;;;2.73;;
18322;SDS011;9287;49.456;11.064;2022-07-10T01:53:41;3.67;;;3.47;;
18322;SDS011;9287;49.456;11.064;2022-07-10T01:56:12;3.40;;;3.20;;
18322;SDS011;9287;49.456;11.064;2022-07-10T01:58:41;2.90;;;2.70;;
18322;SDS011;9287;49.456;11.064;2022-07-10T02:01:09;3.17;;;2.97;;
18322;SDS011;9287;49.456;11.064;2022-07-10T02:03:37;3.60;;;2.43;;
18322;SDS011;9287;49.456;11.064;2022-07-10T02:06:23;3.23;;;3.03;;
18322;SDS011;9287;49.456;11.064;2022-07-10T02:08:51;3.00;;;2.80;;
18322;SDS011;9287;49.456;11.064;2022-07-10T02:11:21;3.40;;;3.17;;
18322;SDS011;9287;49.456;11.064;2022-07-10T02:13:48;3.40;;;3.20;;
18322;SDS011;9287;49.456;11.064;2022-07-10T02:16:16;3.57;;;3.37;;
18322;SDS011;9287;49.456;11.064;2022-07-10T02:18:44;3.13;;;2.90;;
18322;SDS011;9287;49.456;11.064;2022-07-10T02:21:12;3.43;;;3.13;;
18322;SDS011;9287;49.456;11.064;2022-07-10T02:23:40;3.13;;;2.67;;
18322;SDS011;9287;49.456;11.064;2022-07-10T02:26:08;2.50;;;2.30;;
18322;SDS011;9287;49.456;11.064;2022-07-10T02:28:37;3.40;;;2.90;;
18322;SDS011;9287;49.456;11.064;2022-07-10T02:31:06;3.20;;;2.33;;
18322;SDS011;9287;49.456;11.064;2022-07-10T02:33:34;3.20;;;2.40;;
18322;SDS011;9287;49.456;11.064;2022-07-10T02:36:03;2.83;;;2.63;;
18322;SDS011;9287;49.456;11.064;2022-07-10T02:38:31;3.93;;;2.27;;
18322;SDS011;9287;49.456;11.064;2022-07-10T02:40:59;4.40;;;1.60;;
18322;SDS011;9287;49.456;11.064;2022-07-10T02:43:27;2.53;;;2.33;;
18322;SDS011;9287;49.456;11.064;2022-07-10T02:45:56;2.10;;;1.50;;
18322;SDS011;9287;49.456;11.064;2022-07-10T02:48:24;1.87;;;1.40;;
18322;SDS011;9287;49.456;11.064;2022-07-10T02:50:51;1.60;;;1.20;;
18322;SDS011;9287;49.456;11.064;2022-07-10T02:53:19;3.30;;;1.53;;
18322;SDS011;9287;49.456;11.064;2022-07-10T02:55:47;2.87;;;1.00;;
18322;SDS011;9287;49.456;11.064;2022-07-10T02:58:15;2.40;;;1.13;;
18322;SDS011;9287;49.456;11.064;2022-07-10T03:00:43;1.20;;;1.10;;
18322;SDS011;9287;49.456;11.064;2022-07-10T03:03:13;4.03;;;1.23;;
18322;SDS011;9287;49.456;11.064;2022-07-10T03:05:43;4.73;;;1.20;;
18322;SDS011;9287;49.456;11.064;2022-07-10T03:08:11;1.83;;;1.10;;
18322;SDS011;9287;49.456;11.064;2022-07-10T03:10:39;2.00;;;0.80;;
18322;SDS011;9287;49.456;11.064;2022-07-10T03:13:07;1.67;;;0.93;;
18322;SDS011;9287;49.456;11.064;2022-07-10T03:15:34;2.43;;;0.90;;
18322;SDS011;9287;49.456;11.064;2022-07-10T03:18:02;1.80;;;0.90;;
18322;SDS011;9287;49.456;11.064;2022-07-10T03:20:32;1.67;;;0.87;;
18322;SDS011;9287;49.456;11.064;2022-07-10T03:22:59;1.27;;;1.00;;
18322;SDS011;9287;49.456;11.064;2022-07-10T03:25:27;1.00;;;0.90;;
18322;SDS011;9287;49.456;11.064;2022-07-10T03:27:55;2.23;;;0.80;;
18322;SDS011;9287;49.456;11.064;2022-07-10T03:30:23;2.00;;;0.90;;
18322;SDS011;9287;49.456;11.064;2022-07-10T03:32:50;2.43;;;1.00;;
18322;SDS011;9287;49.456;11.064;2022-07-10T03:35:18;3.30;;;1.17;;
18322;SDS011;9287;49.456;11.064;2022-07-10T03:37:47;2.23;;;1.13;;
18322;SDS011;9287;49.456;11.064;2022-07-10T03:40:15;1.97;;;1.37;;
18322;SDS011;9287;49.456;11.064;2022-07-10T03:42:43;4.43;;;1.20;;
18322;SDS011;9287;49.456;11.064;2022-07-10T03:45:11;3.37;;;1.23;;
18322;SDS011;9287;49.456;11.064;2022-07-10T03:47:38;2.60;;;1.40;;
18322;SDS011;9287;49.456;11.064;2022-07-10T03:50:06;1.57;;;1.03;;
18322;SDS011;9287;49.456;11.064;2022-07-10T03:52:35;2.83;;;1.10;;
18322;SDS011;9287;49.456;11.064;2022-07-10T03:55:05;2.30;;;1.13;;
18322;SDS011;9287;49.456;11.064;2022-07-10T03:57:33;5.07;;;1.20;;
18322;SDS011;9287;49.456;11.064;2022-07-10T04:00:19;2.00;;;1.20;;
18322;SDS011;9287;49.456;11.064;2022-07-10T04:02:48;1.53;;;1.30;;
18322;SDS011;9287;49.456;11.064;2022-07-10T04:05:16;1.63;;;1.40;;
18322;SDS011;9287;49.456;11.064;2022-07-10T04:07:44;1.83;;;1.10;;
18322;SDS011;9287;49.456;11.064;2022-07-10T04:10:13;2.30;;;0.90;;
18322;SDS011;9287;49.456;11.064;2022-07-10T04:12:41;4.53;;;0.90;;
18322;SDS011;9287;49.456;11.064;2022-07-10T04:15:09;3.80;;;1.00;;
18322;SDS011;9287;49.456;11.064;2022-07-10T04:17:37;3.43;;;1.00;;
18322;SDS011;9287;49.456;11.064;2022-07-10T04:20:06;4.20;;;0.93;;
18322;SDS011;9287;49.456;11.064;2022-07-10T04:22:34;1.07;;;1.03;;
18322;SDS011;9287;49.456;11.064;2022-07-10T04:25:02;3.83;;;0.93;;
18322;SDS011;9287;49.456;11.064;2022-07-10T04:27:32;2.23;;;0.80;;
18322;SDS011;9287;49.456;11.064;2022-07-10T04:30:00;2.23;;;0.90;;
18322;SDS011;9287;49.456;11.064;2022-07-10T04:32:28;1.97;;;1.00;;
18322;SDS011;9287;49.456;11.064;2022-07-10T04:34:56;2.47;;;0.67;;
18322;SDS011;9287;49.456;11.064;2022-07-10T04:37:24;4.43;;;0.80;;
18322;SDS011;9287;49.456;11.064;2022-07-10T04:39:52;1.73;;;0.73;;
18322;SDS011;9287;49.456;11.064;2022-07-10T04:42:24;0.93;;;0.50;;
18322;SDS011;9287;49.456;11.064;2022-07-10T04:44:54;2.20;;;0.53;;
18322;SDS011;9287;49.456;11.064;2022-07-10T04:47:22;2.90;;;0.80;;
18322;SDS011;9287;49.456;11.064;2022-07-10T04:49:50;3.53;;;0.60;;
18322;SDS011;9287;49.456;11.064;2022-07-10T04:52:18;1.63;;;0.60;;
18322;SDS011;9287;49.456;11.064;2022-07-10T04:54:46;0.90;;;0.60;;
18322;SDS011;9287;49.456;11.064;2022-07-10T04:57:13;1.53;;;0.73;;
18322;SDS011;9287;49.456;11.064;2022-07-10T04:59:41;1.37;;;0.50;;
18322;SDS011;9287;49.456;11.064;2022-07-10T05:02:13;1.27;;;0.50;;
18322;SDS011;9287;49.456;11.064;2022-07-10T05:04:40;1.23;;;0.50;;
18322;SDS011;9287;49.456;11.064;2022-07-10T05:07:08;2.50;;;0.50;;
18322;SDS011;9287;49.456;11.064;2022-07-10T05:09:36;2.13;;;0.50;;
18322;SDS011;9287;49.456;11.064;2022-07-10T05:12:04;3.00;;;0.60;;
18322;SDS011;9287;49.456;11.064;2022-07-10T05:14:33;0.93;;;0.53;;
18322;SDS011;9287;49.456;11.064;2022-07-10T05:17:00;2.27;;;0.60;;
18322;SDS011;9287;49.456;11.064;2022-07-10T05:19:30;1.97;;;0.60;;
18322;SDS011;9287;49.456;11.064;2022-07-10T05:21:57;2.63;;;0.50;;
18322;SDS011;9287;49.456;11.064;2022-07-10T05:24:25;2.07;;;0.60;;
18322;SDS011;9287;49.456;11.064;2022-07-10T05:26:53;3.70;;;0.63;;
18322;SDS011;9287;49.456;11.064;2022-07-10T05:29:21;1.47;;;0.50;;
18322;SDS011;9287;49.456;11.064;2022-07-10T05:31:48;1.17;;;0.60;;
18322;SDS011;9287;49.456;11.064;2022-07-10T05:34:16;0.57;;;0.43;;
18322;SDS011;9287;49.456;11.064;2022-07-10T05:36:45;1.70;;;0.47;;
18322;SDS011;9287;49.456;11.064;2022-07-10T05:39:13;1.00;;;0.50;;
18322;SDS011;9287;49.456;11.064;2022-07-10T05:41:41;0.77;;;0.50;;
18322;SDS011;9287;49.456;11.064;2022-07-10T05:44:08;1.90;;;0.57;;
18322;SDS011;9287;49.456;11.064;2022-07-10T05:46:36;2.30;;;0.40;;
18322;SDS011;9287;49.456;11.064;2022-07-10T05:49:04;1.07;;;0.40;;
18322;SDS011;9287;49.456;11.064;2022-07-10T05:51:32;1.50;;;0.47;;
18322;SDS011;9287;49.456;11.064;2022-07-10T05:54:11;1.47;;;0.50;;
18322;SDS011;9287;49.456;11.064;2022-07-10T05:56:39;1.40;;;0.40;;
18322;SDS011;9287;49.456;11.064;2022-07-10T05:59:07;1.00;;;0.40;;
18322;SDS011;9287;49.456;11.064;2022-07-10T06:01:34;1.50;;;0.40;;
18322;SDS011;9287;49.456;11.064;2022-07-10T06:04:02;1.20;;;0.50;;
18322;SDS011;9287;49.456;11.064;2022-07-10T06:06:30;1.17;;;0.50;;
18322;SDS011;9287;49.456;11.064;2022-07-10T06:08:58;0.50;;;0.30;;
18322;SDS011;9287;49.456;11.064;2022-07-10T06:11:28;2.87;;;0.43;;
18322;SDS011;9287;49.456;11.064;2022-07-10T06:13:55;1.37;;;0.50;;
18322;SDS011;9287;49.456;11.064;2022-07-10T06:16:23;3.03;;;0.57;;
18322;SDS011;9287;49.456;11.064;2022-07-10T06:18:51;3.27;;;0.57;;
18322;SDS011;9287;49.456;11.064;2022-07-10T06:21:18;1.33;;;0.30;;
18322;SDS011;9287;49.456;11.064;2022-07-10T06:23:49;2.73;;;0.40;;
18322;SDS011;9287;49.456;11.064;2022-07-10T06:26:17;3.43;;;0.50;;
18322;SDS011;9287;49.456;11.064;2022-07-10T06:28:46;1.20;;;0.40;;
18322;SDS011;9287;49.456;11.064;2022-07-10T06:31:14;2.07;;;0.40;;
18322;SDS011;9287;49.456;11.064;2022-07-10T06:33:41;1.27;;;0.50;;
18322;SDS011;9287;49.456;11.064;2022-07-10T06:36:09;1.40;;;0.50;;
18322;SDS011;9287;49.456;11.064;2022-07-10T06:38:38;2.00;;;0.40;;
18322;SDS011;9287;49.456;11.064;2022-07-10T06:41:08;2.60;;;0.50;;
18322;SDS011;9287;49.456;11.064;2022-07-10T06:43:37;0.97;;;0.40;;
18322;SDS011;9287;49.456;11.064;2022-07-10T06:46:06;2.43;;;0.40;;
18322;SDS011;9287;49.456;11.064;2022-07-10T06:48:34;1.20;;;0.50;;
18322;SDS011;9287;49.456;11.064;2022-07-10T06:51:06;2.47;;;0.50;;
18322;SDS011;9287;49.456;11.064;2022-07-10T06:53:38;1.83;;;0.50;;
18322;SDS011;9287;49.456;11.064;2022-07-10T06:56:06;0.50;;;0.40;;
18322;SDS011;9287;49.456;11.064;2022-07-10T06:58:34;1.33;;;0.40;;
18322;SDS011;9287;49.456;11.064;2022-07-10T07:01:03;2.10;;;0.60;;
18322;SDS011;9287;49.456;11.064;2022-07-10T07:03:32;1.43;;;0.50;;
18322;SDS011;9287;49.456;11.064;2022-07-10T07:06:00;1.53;;;0.50;;
18322;SDS011;9287;49.456;11.064;2022-07-10T07:08:28;0.97;;;0.53;;
18322;SDS011;9287;49.456;11.064;2022-07-10T07:10:56;1.57;;;0.50;;
18322;SDS011;9287;49.456;11.064;2022-07-10T07:13:24;2.77;;;0.57;;
18322;SDS011;9287;49.456;11.064;2022-07-10T07:15:52;2.07;;;0.70;;
18322;SDS011;9287;49.456;11.064;2022-07-10T07:18:25;2.30;;;0.50;;
18322;SDS011;9287;49.456;11.064;2022-07-10T07:21:00;1.43;;;0.57;;
18322;SDS011;9287;49.456;11.064;2022-07-10T07:23:46;0.50;;;0.40;;
18322;SDS011;9287;49.456;11.064;2022-07-10T07:26:13;1.83;;;0.40;;
18322;SDS011;9287;49.456;11.064;2022-07-10T07:28:41;2.47;;;0.67;;
18322;SDS011;9287;49.456;11.064;2022-07-10T07:31:09;1.30;;;0.50;;
18322;SDS011;9287;49.456;11.064;2022-07-10T07:33:40;0.83;;;0.30;;
18322;SDS011;9287;49.456;11.064;2022-07-10T07:36:10;2.73;;;0.60;;
18322;SDS011;9287;49.456;11.064;2022-07-10T07:38:38;1.70;;;0.40;;
18322;SDS011;9287;49.456;11.064;2022-07-10T07:41:06;2.90;;;0.50;;
18322;SDS011;9287;49.456;11.064;2022-07-10T07:43:35;0.70;;;0.30;;
18322;SDS011;9287;49.456;11.064;2022-07-10T07:46:03;1.33;;;0.40;;
18322;SDS011;9287;49.456;11.064;2022-07-10T07:48:31;1.93;;;0.40;;
18322;SDS011;9287;49.456;11.064;2022-07-10T07:50:59;0.57;;;0.23;;
18322;SDS011;9287;49.456;11.064;2022-07-10T07:53:28;0.57;;;0.30;;
18322;SDS011;9287;49.456;11.064;2022-07-10T07:55:56;0.73;;;0.38;;
18322;SDS011;9287;49.456;11.064;2022-07-10T07:58:23;0.43;;;0.20;;
18322;SDS011;9287;49.456;11.064;2022-07-10T08:00:51;0.93;;;0.30;;
18322;SDS011;9287;49.456;11.064;2022-07-10T08:03:19;1.40;;;0.32;;
18322;SDS011;9287;49.456;11.064;2022-07-10T08:06:07;1.52;;;0.28;;
18322;SDS011;9287;49.456;11.064;2022-07-10T08:08:36;0.45;;;0.20;;
18322;SDS011;9287;49.456;11.064;2022-07-10T08:11:05;3.05;;;0.30;;
18322;SDS011;9287;49.456;11.064;2022-07-10T08:13:32;1.25;;;0.22;;
18322;SDS011;9287;49.456;11.064;2022-07-10T08:16:01;0.77;;;0.20;;
18322;SDS011;9287;49.456;11.064;2022-07-10T08:18:34;0.70;;;0.20;;
18322;SDS011;9287;49.456;11.064;2022-07-10T08:21:03;1.05;;;0.20;;
18322;SDS011;9287;49.456;11.064;2022-07-10T08:23:31;0.63;;;0.30;;
18322;SDS011;9287;49.456;11.064;2022-07-10T08:26:00;0.50;;;0.20;;
18322;SDS011;9287;49.456;11.064;2022-07-10T08:28:28;0.95;;;0.30;;
18322;SDS011;9287;49.456;11.064;2022-07-10T08:30:56;0.20;;;0.20;;
18322;SDS011;9287;49.456;11.064;2022-07-10T08:33:23;2.40;;;0.30;;
18322;SDS011;9287;49.456;11.064;2022-07-10T08:35:51;0.68;;;0.20;;
18322;SDS011;9287;49.456;11.064;2022-07-10T08:38:44;0.68;;;0.30;;
18322;SDS011;9287;49.456;11.064;2022-07-10T08:41:14;0.68;;;0.30;;
18322;SDS011;9287;49.456;11.064;2022-07-10T08:43:43;1.10;;;0.30;;
18322;SDS011;9287;49.456;11.064;2022-07-10T08:46:11;1.17;;;0.30;;
18322;SDS011;9287;49.456;11.064;2022-07-10T08:48:39;0.70;;;0.22;;
18322;SDS011;9287;49.456;11.064;2022-07-10T08:51:11;1.00;;;0.30;;
18322;SDS011;9287;49.456;11.064;2022-07-10T08:53:47;1.38;;;0.20;;
18322;SDS011;9287;49.456;11.064;2022-07-10T08:56:18;1.50;;;0.20;;
18322;SDS011;9287;49.456;11.064;2022-07-10T08:58:45;1.48;;;0.30;;
18322;SDS011;9287;49.456;11.064;2022-07-10T09:01:15;0.30;;;0.20;;
18322;SDS011;9287;49.456;11.064;2022-07-10T09:03:49;1.38;;;0.25;;
18322;SDS011;9287;49.456;11.064;2022-07-10T09:06:17;0.73;;;0.20;;
18322;SDS011;9287;49.456;11.064;2022-07-10T09:08:57;0.40;;;0.20;;
18322;SDS011;9287;49.456;11.064;2022-07-10T09:11:27;0.63;;;0.20;;
18322;SDS011;9287;49.456;11.064;2022-07-10T09:13:56;0.88;;;0.20;;
18322;SDS011;9287;49.456;11.064;2022-07-10T09:16:26;0.40;;;0.30;;
18322;SDS011;9287;49.456;11.064;2022-07-10T09:18:55;1.17;;;0.25;;
18322;SDS011;9287;49.456;11.064;2022-07-10T09:21:23;1.65;;;0.22;;
18322;SDS011;9287;49.456;11.064;2022-07-10T09:23:55;0.75;;;0.20;;
18322;SDS011;9287;49.456;11.064;2022-07-10T09:26:33;0.43;;;0.17;;
18322;SDS011;9287;49.456;11.064;2022-07-10T09:29:07;1.63;;;0.20;;
18322;SDS011;9287;49.456;11.064;2022-07-10T09:31:50;0.60;;;0.30;;
18322;SDS011;9287;49.456;11.064;2022-07-10T09:34:34;0.45;;;0.20;;
18322;SDS011;9287;49.456;11.064;2022-07-10T09:37:19;0.80;;;0.28;;
18322;SDS011;9287;49.456;11.064;2022-07-10T09:39:52;3.38;;;0.90;;
18322;SDS011;9287;49.456;11.064;2022-07-10T09:42:26;0.47;;;0.20;;
18322;SDS011;9287;49.456;11.064;2022-07-10T09:45:15;0.10;;;0.10;;
18322;SDS011;9287;49.456;11.064;2022-07-10T09:47:45;0.65;;;0.20;;
18322;SDS011;9287;49.456;11.064;2022-07-10T09:50:22;0.30;;;0.10;;
18322;SDS011;9287;49.456;11.064;2022-07-10T09:52:51;0.82;;;0.20;;
18322;SDS011;9287;49.456;11.064;2022-07-10T09:55:20;0.40;;;0.28;;
18322;SDS011;9287;49.456;11.064;2022-07-10T09:57:56;0.95;;;0.30;;
18322;SDS011;9287;49.456;11.064;2022-07-10T10:00:26;0.28;;;0.20;;
18322;SDS011;9287;49.456;11.064;2022-07-10T10:02:56;1.35;;;0.20;;
18322;SDS011;9287;49.456;11.064;2022-07-10T10:05:27;0.85;;;0.17;;
18322;SDS011;9287;49.456;11.064;2022-07-10T10:08:05;0.55;;;0.20;;
18322;SDS011;9287;49.456;11.064;2022-07-10T10:10:40;0.43;;;0.20;;
18322;SDS011;9287;49.456;11.064;2022-07-10T10:13:14;0.68;;;0.30;;
18322;SDS011;9287;49.456;11.064;2022-07-10T10:15:45;3.13;;;0.40;;
18322;SDS011;9287;49.456;11.064;2022-07-10T10:18:15;0.40;;;0.20;;
18322;SDS011;9287;49.456;11.064;2022-07-10T10:20:45;0.50;;;0.30;;
18322;SDS011;9287;49.456;11.064;2022-07-10T10:23:13;0.63;;;0.30;;
18322;SDS011;9287;49.456;11.064;2022-07-10T10:25:44;0.52;;;0.30;;
18322;SDS011;9287;49.456;11.064;2022-07-10T10:28:13;0.57;;;0.20;;
18322;SDS011;9287;49.456;11.064;2022-07-10T10:30:47;0.70;;;0.30;;
18322;SDS011;9287;49.456;11.064;2022-07-10T10:36:11;0.43;;;0.30;;
18322;SDS011;9287;49.456;11.064;2022-07-10T10:39:00;1.23;;;0.28;;
18322;SDS011;9287;49.456;11.064;2022-07-10T10:41:29;0.60;;;0.38;;
18322;SDS011;9287;49.456;11.064;2022-07-10T10:44:21;0.77;;;0.30;;
18322;SDS011;9287;49.456;11.064;2022-07-10T10:46:59;0.93;;;0.30;;
18322;SDS011;9287;49.456;11.064;2022-07-10T10:52:28;0.75;;;0.20;;
18322;SDS011;9287;49.456;11.064;2022-07-10T10:55:00;1.25;;;0.40;;
18322;SDS011;9287;49.456;11.064;2022-07-10T10:57:36;1.70;;;0.40;;
18322;SDS011;9287;49.456;11.064;2022-07-10T11:00:09;0.65;;;0.30;;
18322;SDS011;9287;49.456;11.064;2022-07-10T11:02:41;0.35;;;0.25;;
18322;SDS011;9287;49.456;11.064;2022-07-10T11:08:12;1.23;;;0.20;;
18322;SDS011;9287;49.456;11.064;2022-07-10T11:10:41;0.68;;;0.30;;
18322;SDS011;9287;49.456;11.064;2022-07-10T11:13:15;0.75;;;0.50;;
18322;SDS011;9287;49.456;11.064;2022-07-10T11:15:45;0.28;;;0.20;;
18322;SDS011;9287;49.456;11.064;2022-07-10T11:18:15;0.55;;;0.40;;
18322;SDS011;9287;49.456;11.064;2022-07-10T11:20:46;0.77;;;0.40;;
18322;SDS011;9287;49.456;11.064;2022-07-10T11:26:21;0.30;;;0.30;;
18322;SDS011;9287;49.456;11.064;2022-07-10T11:28:58;2.50;;;0.40;;
18322;SDS011;9287;49.456;11.064;2022-07-10T11:31:29;2.05;;;0.20;;
18322;SDS011;9287;49.456;11.064;2022-07-10T11:34:04;0.82;;;0.30;;
18322;SDS011;9287;49.456;11.064;2022-07-10T11:36:31;2.63;;;0.30;;
18322;SDS011;9287;49.456;11.064;2022-07-10T11:39:00;1.95;;;0.32;;
18322;SDS011;9287;49.456;11.064;2022-07-10T11:41:30;0.43;;;0.32;;
18322;SDS011;9287;49.456;11.064;2022-07-10T11:43:59;1.52;;;0.50;;
18322;SDS011;9287;49.456;11.064;2022-07-10T11:46:29;2.80;;;1.30;;
18322;SDS011;9287;49.456;11.064;2022-07-10T11:48:58;0.40;;;0.40;;
18322;SDS011;9287;49.456;11.064;2022-07-10T11:51:31;0.50;;;0.25;;
18322;SDS011;9287;49.456;11.064;2022-07-10T11:54:01;1.90;;;0.30;;
18322;SDS011;9287;49.456;11.064;2022-07-10T11:56:31;0.35;;;0.20;;
18322;SDS011;9287;49.456;11.064;2022-07-10T11:59:01;1.38;;;0.35;;
18322;SDS011;9287;49.456;11.064;2022-07-10T12:01:31;0.22;;;0.20;;
18322;SDS011;9287;49.456;11.064;2022-07-10T12:04:01;1.15;;;0.22;;
18322;SDS011;9287;49.456;11.064;2022-07-10T12:06:32;0.30;;;0.30;;
18322;SDS011;9287;49.456;11.064;2022-07-10T12:09:02;0.60;;;0.30;;
18322;SDS011;9287;49.456;11.064;2022-07-10T12:11:30;1.65;;;0.32;;
18322;SDS011;9287;49.456;11.064;2022-07-10T12:14:08;0.63;;;0.20;;
18322;SDS011;9287;49.456;11.064;2022-07-10T12:16:39;0.40;;;0.20;;
18322;SDS011;9287;49.456;11.064;2022-07-10T12:19:10;0.30;;;0.30;;
18322;SDS011;9287;49.456;11.064;2022-07-10T12:21:39;1.17;;;0.30;;
18322;SDS011;9287;49.456;11.064;2022-07-10T12:24:09;0.70;;;0.28;;
18322;SDS011;9287;49.456;11.064;2022-07-10T12:26:38;0.85;;;0.30;;
18322;SDS011;9287;49.456;11.064;2022-07-10T12:29:11;0.40;;;0.30;;
18322;SDS011;9287;49.456;11.064;2022-07-10T12:31:47;0.38;;;0.35;;
18322;SDS011;9287;49.456;11.064;2022-07-10T12:34:16;0.75;;;0.20;;
18322;SDS011;9287;49.456;11.064;2022-07-10T12:36:46;1.25;;;0.30;;
18322;SDS011;9287;49.456;11.064;2022-07-10T12:39:16;1.15;;;0.30;;
18322;SDS011;9287;49.456;11.064;2022-07-10T12:42:00;1.08;;;0.30;;
18322;SDS011;9287;49.456;11.064;2022-07-10T12:44:30;0.43;;;0.20;;
18322;SDS011;9287;49.456;11.064;2022-07-10T12:47:06;0.70;;;0.30;;
18322;SDS011;9287;49.456;11.064;2022-07-10T12:49:49;1.33;;;0.30;;
18322;SDS011;9287;49.456;11.064;2022-07-10T12:52:21;0.15;;;0.15;;
18322;SDS011;9287;49.456;11.064;2022-07-10T12:55:07;0.73;;;0.30;;
18322;SDS011;9287;49.456;11.064;2022-07-10T12:57:46;0.50;;;0.28;;
18322;SDS011;9287;49.456;11.064;2022-07-10T13:00:16;0.50;;;0.30;;
18322;SDS011;9287;49.456;11.064;2022-07-10T13:02:47;2.67;;;0.25;;
18322;SDS011;9287;49.456;11.064;2022-07-10T13:05:25;2.78;;;0.30;;
18322;SDS011;9287;49.456;11.064;2022-07-10T13:08:03;0.68;;;0.22;;
18322;SDS011;9287;49.456;11.064;2022-07-10T13:10:33;1.30;;;0.28;;
18322;SDS011;9287;49.456;11.064;2022-07-10T13:13:02;0.70;;;0.22;;
18322;SDS011;9287;49.456;11.064;2022-07-10T13:15:30;2.17;;;0.38;;
18322;SDS011;9287;49.456;11.064;2022-07-10T13:17:59;0.25;;;0.20;;
18322;SDS011;9287;49.456;11.064;2022-07-10T13:20:27;0.32;;;0.20;;
18322;SDS011;9287;49.456;11.064;2022-07-10T13:22:55;0.25;;;0.20;;
18322;SDS011;9287;49.456;11.064;2022-07-10T13:25:23;0.40;;;0.30;;
18322;SDS011;9287;49.456;11.064;2022-07-10T13:27:51;0.30;;;0.20;;
18322;SDS011;9287;49.456;11.064;2022-07-10T13:30:19;1.27;;;0.30;;
18322;SDS011;9287;49.456;11.064;2022-07-10T13:32:47;0.20;;;0.20;;
18322;SDS011;9287;49.456;11.064;2022-07-10T13:35:16;1.58;;;0.30;;
18322;SDS011;9287;49.456;11.064;2022-07-10T13:37:44;0.40;;;0.20;;
18322;SDS011;9287;49.456;11.064;2022-07-10T13:40:12;0.43;;;0.30;;
18322;SDS011;9287;49.456;11.064;2022-07-10T13:42:40;0.35;;;0.20;;
18322;SDS011;9287;49.456;11.064;2022-07-10T13:45:08;0.22;;;0.20;;
18322;SDS011;9287;49.456;11.064;2022-07-10T13:47:37;0.40;;;0.30;;
18322;SDS011;9287;49.456;11.064;2022-07-10T13:50:05;2.42;;;0.30;;
18322;SDS011;9287;49.456;11.064;2022-07-10T13:52:35;0.65;;;0.30;;
18322;SDS011;9287;49.456;11.064;2022-07-10T13:55:03;0.75;;;0.30;;
18322;SDS011;9287;49.456;11.064;2022-07-10T13:57:32;0.28;;;0.20;;
18322;SDS011;9287;49.456;11.064;2022-07-10T14:00:00;1.35;;;0.30;;
18322;SDS011;9287;49.456;11.064;2022-07-10T14:02:28;2.25;;;0.40;;
18322;SDS011;9287;49.456;11.064;2022-07-10T14:04:56;1.33;;;0.60;;
18322;SDS011;9287;49.456;11.064;2022-07-10T14:07:26;0.22;;;0.20;;
18322;SDS011;9287;49.456;11.064;2022-07-10T14:10:00;1.25;;;0.57;;
18322;SDS011;9287;49.456;11.064;2022-07-10T14:12:28;1.15;;;0.30;;
18322;SDS011;9287;49.456;11.064;2022-07-10T14:14:56;1.23;;;0.30;;
18322;SDS011;9287;49.456;11.064;2022-07-10T14:17:24;1.92;;;0.30;;
18322;SDS011;9287;49.456;11.064;2022-07-10T14:19:52;0.30;;;0.30;;
18322;SDS011;9287;49.456;11.064;2022-07-10T14:22:20;0.73;;;0.30;;
18322;SDS011;9287;49.456;11.064;2022-07-10T14:24:48;0.30;;;0.20;;
18322;SDS011;9287;49.456;11.064;2022-07-10T14:27:19;0.40;;;0.30;;
18322;SDS011;9287;49.456;11.064;2022-07-10T14:29:47;1.30;;;0.30;;
18322;SDS011;9287;49.456;11.064;2022-07-10T14:32:15;0.20;;;0.20;;
18322;SDS011;9287;49.456;11.064;2022-07-10T14:34:43;1.33;;;0.45;;
18322;SDS011;9287;49.456;11.064;2022-07-10T14:37:10;0.35;;;0.30;;
18322;SDS011;9287;49.456;11.064;2022-07-10T14:39:38;1.00;;;0.30;;
18322;SDS011;9287;49.456;11.064;2022-07-10T14:42:07;0.88;;;0.30;;
18322;SDS011;9287;49.456;11.064;2022-07-10T14:44:36;1.00;;;0.90;;
18322;SDS011;9287;49.456;11.064;2022-07-10T14:47:04;0.77;;;0.60;;
18322;SDS011;9287;49.456;11.064;2022-07-10T14:49:32;1.10;;;0.52;;
18322;SDS011;9287;49.456;11.064;2022-07-10T14:52:00;1.00;;;0.47;;
18322;SDS011;9287;49.456;11.064;2022-07-10T14:54:28;1.50;;;0.30;;
18322;SDS011;9287;49.456;11.064;2022-07-10T14:56:56;0.95;;;0.20;;
18322;SDS011;9287;49.456;11.064;2022-07-10T14:59:29;1.60;;;0.40;;
18322;SDS011;9287;49.456;11.064;2022-07-10T15:01:58;0.52;;;0.30;;
18322;SDS011;9287;49.456;11.064;2022-07-10T15:04:26;0.47;;;0.20;;
18322;SDS011;9287;49.456;11.064;2022-07-10T15:06:54;0.55;;;0.30;;
18322;SDS011;9287;49.456;11.064;2022-07-10T15:09:22;2.67;;;0.60;;
18322;SDS011;9287;49.456;11.064;2022-07-10T15:11:50;1.27;;;0.50;;
18322;SDS011;9287;49.456;11.064;2022-07-10T15:14:19;1.52;;;0.30;;
18322;SDS011;9287;49.456;11.064;2022-07-10T15:16:47;1.27;;;0.40;;